Time;durP1;ratioP1;P1;durP2;ratioP2;P2;SDS_P1;SDS_P2;PMS_P1;PMS_P2;Temp;Humidity;BMP_temperature;BMP_pressure;BME280_temperature;BME280_humidity;BME280_pressure;Samples;Min_cycle;Max_cycle;Signal;HPM_P1;HPM_P2
2021/06/12 00:00:34;;;;;;;7.70;4.50;;;20.30;99.90;;;;;;5052848;28;20115;-83
2021/06/12 00:03:01;;;;;;;6.28;3.70;;;20.30;99.90;;;;;;5051031;28;20025;-83
2021/06/12 00:05:27;;;;;;;6.35;3.90;;;20.30;99.90;;;;;;5070633;28;20417;-83
2021/06/12 00:07:53;;;;;;;6.43;4.07;;;20.30;99.90;;;;;;5070914;28;20029;-83
2021/06/12 00:10:22;;;;;;;5.80;4.30;;;20.20;99.90;;;;;;5051583;28;20159;-83
2021/06/12 00:12:48;;;;;;;9.23;4.55;;;20.10;99.90;;;;;;5070816;28;20381;-83
2021/06/12 00:15:17;;;;;;;7.03;4.15;;;20.00;99.90;;;;;;5070652;28;20101;-82
2021/06/12 00:17:43;;;;;;;6.55;3.83;;;20.00;99.90;;;;;;5070898;28;20025;-83
2021/06/12 00:20:13;;;;;;;5.70;3.75;;;20.00;99.90;;;;;;5052167;28;20036;-83
2021/06/12 00:22:39;;;;;;;6.47;3.90;;;20.00;99.90;;;;;;5036215;28;20546;-83
2021/06/12 00:25:06;;;;;;;4.97;3.70;;;19.80;99.90;;;;;;5032516;28;20111;-83
2021/06/12 00:27:31;;;;;;;5.55;4.18;;;19.90;99.90;;;;;;5049448;28;20052;-83
2021/06/12 00:29:57;;;;;;;10.35;4.28;;;19.90;99.90;;;;;;5050013;28;20068;-82
2021/06/12 00:32:23;;;;;;;7.68;4.60;;;19.80;99.90;;;;;;5048850;28;20025;-82
2021/06/12 00:34:48;;;;;;;6.45;4.25;;;19.80;99.90;;;;;;5049387;28;20111;-83
2021/06/12 00:37:14;;;;;;;7.50;4.57;;;19.70;99.90;;;;;;5070253;28;20120;-83
2021/06/12 00:39:39;;;;;;;5.85;4.07;;;19.70;99.90;;;;;;5051232;28;20052;-83
2021/06/12 00:42:05;;;;;;;6.50;4.80;;;19.60;99.90;;;;;;5053770;28;20370;-83
2021/06/12 00:44:31;;;;;;;6.88;4.30;;;19.60;99.90;;;;;;5050360;28;20105;-83
2021/06/12 00:46:56;;;;;;;6.57;4.22;;;19.40;99.90;;;;;;5049440;28;20029;-82
2021/06/12 00:49:23;;;;;;;6.78;4.32;;;19.40;99.90;;;;;;5050361;28;20036;-83
2021/06/12 00:51:48;;;;;;;7.00;4.10;;;19.40;99.90;;;;;;5050533;28;20024;-83
2021/06/12 00:54:14;;;;;;;6.28;4.65;;;19.30;99.90;;;;;;5051237;28;20024;-84
2021/06/12 00:56:40;;;;;;;7.75;4.30;;;19.30;99.90;;;;;;5054641;28;20017;-83
2021/06/12 00:59:06;;;;;;;8.15;4.53;;;19.30;99.90;;;;;;5062850;22;20460;-83
2021/06/12 01:01:31;;;;;;;6.47;4.63;;;19.20;99.90;;;;;;5063749;28;20028;-82
2021/06/12 01:03:58;;;;;;;5.50;4.03;;;19.20;99.90;;;;;;5065461;28;20039;-82
2021/06/12 01:06:24;;;;;;;6.75;4.32;;;19.20;99.90;;;;;;5062945;28;20076;-82
2021/06/12 01:08:50;;;;;;;8.75;4.80;;;19.20;99.90;;;;;;5045586;28;20021;-82
2021/06/12 01:11:16;;;;;;;6.53;4.53;;;19.20;99.90;;;;;;5045862;28;20053;-82
2021/06/12 01:13:54;;;;;;;7.82;4.80;;;19.10;99.90;;;;;;5025030;28;20034;-82
2021/06/12 01:16:39;;;;;;;6.60;4.18;;;19.10;99.90;;;;;;5060320;28;20029;-82
2021/06/12 01:19:42;;;;;;;6.20;4.25;;;19.10;99.90;;;;;;5046630;28;20568;-82
2021/06/12 01:22:25;;;;;;;5.90;4.40;;;19.10;99.90;;;;;;5044246;28;20033;-83
2021/06/12 01:24:56;;;;;;;5.95;4.20;;;19.00;99.90;;;;;;5045551;28;20025;-82
2021/06/12 01:27:50;;;;;;;6.30;4.90;;;19.00;99.90;;;;;;5027503;28;20088;-84
2021/06/12 01:30:20;;;;;;;5.90;4.40;;;19.00;99.90;;;;;;5044751;28;20056;-82
2021/06/12 01:32:53;;;;;;;7.22;4.57;;;19.00;99.90;;;;;;5043838;28;20028;-82
2021/06/12 01:35:26;;;;;;;5.55;4.38;;;19.00;99.90;;;;;;5064504;28;20017;-82
2021/06/12 01:37:53;;;;;;;6.50;4.57;;;18.90;99.90;;;;;;5063207;28;20021;-82
2021/06/12 01:40:25;;;;;;;6.53;5.13;;;18.90;99.90;;;;;;5061038;28;20036;-82
2021/06/12 01:42:53;;;;;;;6.68;4.80;;;18.80;99.90;;;;;;5045885;28;20160;-82
2021/06/12 01:45:20;;;;;;;7.10;4.82;;;18.80;99.90;;;;;;5045548;28;20032;-82
2021/06/12 01:47:46;;;;;;;6.13;4.25;;;18.80;99.90;;;;;;5044946;28;20025;-81
2021/06/12 01:50:14;;;;;;;6.55;4.88;;;18.80;99.90;;;;;;5061431;28;20041;-82
2021/06/12 01:52:41;;;;;;;10.40;4.32;;;18.70;99.90;;;;;;5045160;28;20024;-82
2021/06/12 01:55:09;;;;;;;6.63;4.70;;;18.70;99.90;;;;;;5063913;28;20037;-82
2021/06/12 01:57:36;;;;;;;6.78;5.32;;;18.70;99.90;;;;;;5067541;28;20079;-82
2021/06/12 02:00:04;;;;;;;6.25;4.75;;;18.60;99.90;;;;;;5050594;28;20022;-83
2021/06/12 02:02:30;;;;;;;9.23;5.22;;;18.60;99.90;;;;;;5027685;28;20483;-82
2021/06/12 02:04:57;;;;;;;7.55;5.15;;;18.60;99.90;;;;;;5045157;28;20071;-82
2021/06/12 02:07:24;;;;;;;6.75;4.95;;;18.60;99.90;;;;;;5054327;28;20025;-82
2021/06/12 02:09:51;;;;;;;7.00;4.88;;;18.60;99.90;;;;;;5045803;28;20021;-83
2021/06/12 02:12:18;;;;;;;8.95;5.22;;;18.50;99.90;;;;;;5042920;28;20046;-82
2021/06/12 02:14:45;;;;;;;6.68;4.97;;;18.50;99.90;;;;;;5045116;28;20049;-82
2021/06/12 02:17:11;;;;;;;7.25;5.53;;;18.50;99.90;;;;;;5043462;28;20026;-82
2021/06/12 02:19:39;;;;;;;7.82;5.32;;;18.50;99.90;;;;;;5026429;28;20036;-82
2021/06/12 02:22:06;;;;;;;6.78;4.63;;;18.40;99.90;;;;;;5057644;28;20029;-82
2021/06/12 02:24:32;;;;;;;6.97;5.40;;;18.40;99.90;;;;;;5040899;28;20036;-82
2021/06/12 02:26:59;;;;;;;9.02;5.57;;;18.40;99.90;;;;;;5043955;28;20072;-82
2021/06/12 02:29:26;;;;;;;6.53;5.13;;;18.40;99.90;;;;;;5043467;28;20044;-82
2021/06/12 02:32:11;;;;;;;7.85;5.50;;;18.40;99.90;;;;;;5043644;28;20021;-82
2021/06/12 02:34:37;;;;;;;7.43;5.10;;;18.40;99.90;;;;;;5042854;28;20030;-82
2021/06/12 02:37:05;;;;;;;7.78;5.20;;;18.30;99.90;;;;;;5042933;28;20036;-82
2021/06/12 02:39:31;;;;;;;6.40;4.97;;;18.30;99.90;;;;;;5024967;28;20025;-83
2021/06/12 02:41:56;;;;;;;7.15;5.32;;;18.30;99.90;;;;;;5042373;28;20436;-82
2021/06/12 02:44:22;;;;;;;7.90;4.90;;;18.30;99.90;;;;;;5043680;28;20037;-82
2021/06/12 02:46:48;;;;;;;6.30;4.57;;;18.20;99.90;;;;;;5023524;28;20066;-82
2021/06/12 02:49:18;;;;;;;8.05;5.30;;;18.20;99.90;;;;;;5042289;28;20056;-82
2021/06/12 02:52:00;;;;;;;6.03;4.80;;;18.20;99.90;;;;;;5023451;28;20040;-82
2021/06/12 02:54:27;;;;;;;6.85;4.97;;;18.10;99.90;;;;;;5023924;28;20022;-82
2021/06/12 02:56:56;;;;;;;6.75;4.90;;;18.10;99.90;;;;;;5041981;28;20041;-82
2021/06/12 02:59:23;;;;;;;7.75;5.28;;;18.10;99.90;;;;;;5023426;28;20033;-81
2021/06/12 03:01:51;;;;;;;6.70;5.07;;;18.10;99.90;;;;;;5041442;28;20040;-82
2021/06/12 03:04:18;;;;;;;7.70;5.22;;;18.00;99.90;;;;;;5041556;28;20032;-82
2021/06/12 03:06:47;;;;;;;7.95;5.55;;;18.00;99.90;;;;;;5039569;28;20030;-82
2021/06/12 03:09:21;;;;;;;8.10;5.90;;;18.00;99.90;;;;;;5041128;28;20080;-82
2021/06/12 03:11:49;;;;;;;7.25;5.50;;;17.90;99.90;;;;;;5025569;28;20041;-82
2021/06/12 03:14:16;;;;;;;8.55;6.03;;;17.90;99.90;;;;;;5025800;28;20022;-82
2021/06/12 03:16:45;;;;;;;7.93;5.57;;;17.80;99.90;;;;;;5025422;28;20029;-82
2021/06/12 03:19:13;;;;;;;7.82;5.40;;;17.80;99.90;;;;;;5042796;28;20059;-82
2021/06/12 03:21:39;;;;;;;7.80;5.68;;;17.80;99.90;;;;;;5036959;28;20089;-82
2021/06/12 03:24:06;;;;;;;7.10;5.57;;;17.80;99.90;;;;;;5063245;28;20059;-82
2021/06/12 03:26:33;;;;;;;7.50;5.30;;;17.80;99.90;;;;;;5055469;28;20489;-82
2021/06/12 03:29:01;;;;;;;7.32;5.20;;;17.80;99.90;;;;;;5025412;28;20041;-82
2021/06/12 03:31:29;;;;;;;8.05;5.20;;;17.80;99.90;;;;;;5025631;28;20029;-83
2021/06/12 03:33:54;;;;;;;6.70;5.03;;;17.80;99.90;;;;;;5025558;28;20081;-82
2021/06/12 03:36:22;;;;;;;7.60;5.43;;;17.80;99.90;;;;;;5025558;28;20021;-82
2021/06/12 03:38:48;;;;;;;6.00;4.88;;;17.80;99.90;;;;;;5043294;28;20069;-82
2021/06/12 03:41:16;;;;;;;8.45;5.72;;;17.70;99.90;;;;;;5044637;28;20499;-82
2021/06/12 03:43:42;;;;;;;7.20;5.05;;;17.70;99.90;;;;;;5062480;28;20033;-82
2021/06/12 03:46:08;;;;;;;5.93;4.68;;;17.60;99.90;;;;;;5045355;28;20037;-82
2021/06/12 03:48:38;;;;;;;8.00;5.30;;;17.60;99.90;;;;;;5041763;28;20080;-82
2021/06/12 03:51:04;;;;;;;8.00;4.85;;;17.60;99.90;;;;;;5040528;28;20021;-82
2021/06/12 03:53:30;;;;;;;7.07;5.18;;;17.50;99.90;;;;;;5040532;28;20053;-82
2021/06/12 03:55:58;;;;;;;6.72;5.07;;;17.50;99.90;;;;;;5040818;28;20047;-82
2021/06/12 03:58:24;;;;;;;6.75;5.13;;;17.50;99.90;;;;;;5041843;28;20086;-82
2021/06/12 04:00:49;;;;;;;8.45;5.57;;;17.50;99.90;;;;;;5041853;28;20033;-82
2021/06/12 04:03:15;;;;;;;7.20;5.47;;;17.50;99.90;;;;;;5045184;28;20043;-82
2021/06/12 04:05:41;;;;;;;7.57;5.63;;;17.50;99.90;;;;;;5066273;28;20028;-82
2021/06/12 04:08:07;;;;;;;6.82;5.55;;;17.50;99.90;;;;;;5054441;28;20021;-82
2021/06/12 04:10:32;;;;;;;7.53;5.57;;;17.50;99.90;;;;;;5081684;28;20032;-82
2021/06/12 04:12:58;;;;;;;8.65;5.88;;;17.50;99.90;;;;;;5059013;28;20075;-82
2021/06/12 04:15:24;;;;;;;8.32;5.35;;;17.50;99.90;;;;;;5040104;28;20021;-82
2021/06/12 04:17:58;;;;;;;9.05;6.00;;;17.60;99.90;;;;;;5023054;28;20030;-82
2021/06/12 04:20:24;;;;;;;8.80;5.20;;;17.60;99.90;;;;;;5041553;28;20029;-82
2021/06/12 04:22:50;;;;;;;9.07;5.45;;;17.60;99.90;;;;;;5043106;28;20024;-82
2021/06/12 04:25:15;;;;;;;8.88;5.55;;;17.50;99.90;;;;;;5036754;28;20080;-82
2021/06/12 04:27:41;;;;;;;6.82;5.20;;;17.50;99.90;;;;;;5041392;28;20389;-82
2021/06/12 04:30:08;;;;;;;8.77;5.80;;;17.50;99.90;;;;;;5023023;28;20056;-82
2021/06/12 04:32:33;;;;;;;10.00;5.80;;;17.60;99.90;;;;;;5042320;28;20021;-82
2021/06/12 04:34:59;;;;;;;7.25;5.53;;;17.60;99.90;;;;;;5029294;28;20029;-82
2021/06/12 04:37:25;;;;;;;6.78;4.68;;;17.60;99.90;;;;;;5067162;28;20021;-82
2021/06/12 04:39:50;;;;;;;7.38;5.50;;;17.60;99.90;;;;;;5041110;28;20030;-81
2021/06/12 04:42:16;;;;;;;7.32;5.88;;;17.60;99.90;;;;;;5043165;28;20504;-82
2021/06/12 04:44:42;;;;;;;7.70;6.22;;;17.50;99.90;;;;;;5038987;28;20025;-82
2021/06/12 04:47:07;;;;;;;8.55;6.70;;;17.50;99.90;;;;;;5049686;28;20029;-82
2021/06/12 04:49:33;;;;;;;8.73;6.57;;;17.50;99.90;;;;;;5064988;28;20024;-82
2021/06/12 04:51:59;;;;;;;8.90;6.32;;;17.50;99.90;;;;;;5065384;28;20032;-82
2021/06/12 04:54:24;;;;;;;8.40;6.03;;;17.50;99.90;;;;;;5055561;28;20029;-82
2021/06/12 04:56:50;;;;;;;8.50;5.75;;;17.50;99.90;;;;;;5049642;28;20083;-81
2021/06/12 04:59:15;;;;;;;8.43;6.05;;;17.60;99.90;;;;;;5050572;28;20046;-82
2021/06/12 05:01:41;;;;;;;8.48;6.65;;;17.70;99.90;;;;;;5053932;28;20017;-82
2021/06/12 05:04:06;;;;;;;8.70;6.45;;;17.80;99.90;;;;;;5049619;28;20079;-82
2021/06/12 05:06:32;;;;;;;8.13;6.03;;;17.90;99.90;;;;;;5061735;28;20057;-82
2021/06/12 05:08:57;;;;;;;7.28;5.50;;;17.90;99.90;;;;;;5061128;28;20037;-82
2021/06/12 05:11:23;;;;;;;8.50;6.15;;;17.90;99.90;;;;;;5043084;28;20038;-82
2021/06/12 05:13:49;;;;;;;8.43;6.32;;;18.10;99.90;;;;;;5058066;28;20040;-82
2021/06/12 05:16:15;;;;;;;10.57;6.53;;;18.20;99.90;;;;;;5062318;28;20021;-82
2021/06/12 05:18:43;;;;;;;8.63;6.13;;;18.30;99.90;;;;;;5041330;28;20029;-82
2021/06/12 05:21:10;;;;;;;11.48;7.38;;;18.40;99.90;;;;;;5045512;28;20021;-83
2021/06/12 05:23:36;;;;;;;11.32;6.57;;;18.40;99.90;;;;;;5062864;28;20114;-82
2021/06/12 05:26:06;;;;;;;10.02;6.60;;;18.40;99.90;;;;;;5063306;28;20040;-83
2021/06/12 05:28:31;;;;;;;8.90;6.50;;;18.50;99.90;;;;;;5054765;28;20029;-82
2021/06/12 05:30:57;;;;;;;9.13;6.57;;;18.50;99.90;;;;;;5044525;28;20028;-83
2021/06/12 05:33:23;;;;;;;9.48;6.78;;;18.60;99.90;;;;;;5043296;28;20031;-83
2021/06/12 05:35:50;;;;;;;8.23;6.05;;;18.70;99.90;;;;;;5042771;28;20025;-83
2021/06/12 05:38:16;;;;;;;8.32;6.50;;;18.80;99.90;;;;;;5025721;28;20025;-83
2021/06/12 05:40:43;;;;;;;11.43;6.90;;;18.90;99.90;;;;;;5031260;28;20025;-83
2021/06/12 05:43:09;;;;;;;9.02;6.22;;;18.90;99.90;;;;;;5044688;28;20119;-83
2021/06/12 05:45:34;;;;;;;7.65;5.88;;;18.90;99.90;;;;;;5046898;28;20063;-83
2021/06/12 05:48:00;;;;;;;7.25;5.50;;;18.90;99.90;;;;;;5065298;28;20049;-83
2021/06/12 05:50:26;;;;;;;7.72;5.82;;;19.00;99.90;;;;;;5044922;28;20558;-83
2021/06/12 05:52:51;;;;;;;9.05;6.00;;;19.10;99.90;;;;;;5028603;28;20401;-83
2021/06/12 05:55:17;;;;;;;9.00;5.82;;;19.20;99.90;;;;;;5034683;28;20067;-83
2021/06/12 05:57:43;;;;;;;8.15;6.40;;;19.30;99.90;;;;;;5057954;28;20024;-83
2021/06/12 06:00:10;;;;;;;8.88;6.30;;;19.30;99.90;;;;;;5033854;28;20551;-83
2021/06/12 06:02:36;;;;;;;9.18;5.70;;;19.40;99.90;;;;;;5045104;28;20454;-83
2021/06/12 06:05:01;;;;;;;7.40;5.47;;;19.50;99.90;;;;;;5058136;28;20017;-83
2021/06/12 06:07:27;;;;;;;9.25;6.28;;;19.70;99.90;;;;;;5060210;28;20026;-83
2021/06/12 06:09:52;;;;;;;7.80;5.85;;;19.90;99.90;;;;;;5042962;28;20397;-83
2021/06/12 06:12:18;;;;;;;9.50;5.90;;;19.80;99.90;;;;;;5054984;28;20039;-83
2021/06/12 06:14:44;;;;;;;8.20;5.60;;;19.70;99.90;;;;;;5064130;28;20021;-83
2021/06/12 06:17:09;;;;;;;9.93;6.10;;;19.80;99.90;;;;;;5060961;28;20025;-83
2021/06/12 06:19:35;;;;;;;8.43;6.05;;;19.80;99.90;;;;;;5063868;28;20074;-83
2021/06/12 06:22:01;;;;;;;8.98;6.80;;;19.80;99.90;;;;;;5064444;28;20412;-83
2021/06/12 06:24:26;;;;;;;8.40;6.20;;;19.80;99.90;;;;;;5045386;28;20024;-83
2021/06/12 06:26:52;;;;;;;13.65;6.53;;;19.80;99.90;;;;;;5046362;28;20025;-83
2021/06/12 06:29:17;;;;;;;8.98;6.38;;;19.80;99.90;;;;;;5065523;28;20051;-82
2021/06/12 06:31:46;;;;;;;8.48;6.53;;;19.70;99.90;;;;;;5063799;28;20057;-82
2021/06/12 06:34:12;;;;;;;9.85;6.80;;;19.60;99.90;;;;;;5047214;28;20017;-82
2021/06/12 06:36:41;;;;;;;10.07;6.55;;;19.50;99.90;;;;;;5046662;28;20021;-82
2021/06/12 06:39:06;;;;;;;8.88;6.25;;;19.70;99.90;;;;;;5046428;28;20017;-82
2021/06/12 06:41:32;;;;;;;11.25;6.95;;;19.90;99.90;;;;;;5062901;28;20029;-82
2021/06/12 06:44:03;;;;;;;7.80;6.22;;;19.90;99.90;;;;;;5060196;28;20040;-82
2021/06/12 06:46:32;;;;;;;9.02;5.78;;;20.00;99.90;;;;;;5061301;28;20028;-82
2021/06/12 06:48:57;;;;;;;9.45;6.18;;;20.20;99.90;;;;;;5045730;28;20028;-82
2021/06/12 06:51:23;;;;;;;9.40;6.35;;;20.30;99.90;;;;;;5060912;28;20039;-82
2021/06/12 06:53:49;;;;;;;7.45;5.75;;;20.40;99.90;;;;;;5062090;28;20021;-82
2021/06/12 06:56:15;;;;;;;7.85;5.97;;;20.70;99.90;;;;;;5045683;28;20024;-82
2021/06/12 06:58:40;;;;;;;7.38;5.25;;;20.90;99.90;;;;;;5043262;28;20029;-83
2021/06/12 07:01:06;;;;;;;9.05;5.88;;;21.10;99.90;;;;;;5065141;28;20029;-83
2021/06/12 07:03:32;;;;;;;9.18;5.70;;;21.20;99.90;;;;;;5060141;28;20080;-83
2021/06/12 07:05:58;;;;;;;10.50;5.60;;;21.20;99.90;;;;;;5045580;28;20087;-83
2021/06/12 07:08:23;;;;;;;9.82;5.78;;;21.40;99.90;;;;;;5057941;28;20028;-83
2021/06/12 07:10:50;;;;;;;14.23;5.78;;;21.70;99.90;;;;;;5060131;28;20021;-83
2021/06/12 07:13:23;;;;;;;7.90;5.75;;;21.60;99.90;;;;;;5043715;28;20159;-83
2021/06/12 07:15:49;;;;;;;8.35;5.72;;;21.50;99.90;;;;;;5060996;28;20017;-83
2021/06/12 07:18:15;;;;;;;8.50;5.57;;;21.40;99.90;;;;;;5057422;28;20032;-82
2021/06/12 07:20:46;;;;;;;9.35;5.65;;;21.60;99.90;;;;;;5066300;28;20021;-83
2021/06/12 07:23:15;;;;;;;8.07;4.80;;;21.70;99.90;;;;;;5041868;28;20072;-83
2021/06/12 07:25:40;;;;;;;7.32;5.13;;;22.10;99.90;;;;;;5058003;28;20093;-82
2021/06/12 07:28:06;;;;;;;7.93;5.40;;;22.30;99.90;;;;;;5048355;28;20075;-83
2021/06/12 07:30:38;;;;;;;8.88;4.57;;;22.50;99.90;;;;;;5040634;28;20040;-83
2021/06/12 07:33:04;;;;;;;7.63;4.13;;;22.80;99.90;;;;;;5038029;28;20049;-83
2021/06/12 07:35:30;;;;;;;8.10;5.10;;;23.10;99.90;;;;;;5051966;28;20435;-83
2021/06/12 07:37:55;;;;;;;8.15;4.78;;;23.10;99.90;;;;;;5041541;28;20132;-83
2021/06/12 07:40:21;;;;;;;5.70;4.47;;;23.30;99.90;;;;;;5055467;28;20025;-84
2021/06/12 07:42:47;;;;;;;7.55;4.53;;;23.10;99.90;;;;;;5055686;28;20074;-84
2021/06/12 07:45:13;;;;;;;11.45;4.40;;;23.20;99.90;;;;;;5055798;28;20091;-85
2021/06/12 07:47:38;;;;;;;6.25;4.10;;;23.20;99.90;;;;;;5060155;28;20024;-84
2021/06/12 07:50:04;;;;;;;4.90;3.85;;;23.10;99.90;;;;;;5037581;28;20029;-84
2021/06/12 07:52:30;;;;;;;5.38;3.95;;;23.40;99.90;;;;;;5047731;28;20025;-84
2021/06/12 07:54:56;;;;;;;6.30;3.72;;;23.60;99.90;;;;;;5044948;28;20128;-83
2021/06/12 07:57:21;;;;;;;6.88;3.80;;;23.60;99.90;;;;;;5040892;28;20059;-82
2021/06/12 07:59:47;;;;;;;6.07;3.42;;;23.80;99.90;;;;;;5054707;28;20024;-83
2021/06/12 08:02:12;;;;;;;6.95;3.50;;;24.00;99.90;;;;;;5038678;28;20163;-83
2021/06/12 08:04:38;;;;;;;6.50;2.95;;;24.40;99.90;;;;;;5032880;28;20063;-84
2021/06/12 08:07:04;;;;;;;4.88;3.10;;;24.50;99.90;;;;;;5051846;28;20044;-83
2021/06/12 08:09:29;;;;;;;5.15;3.08;;;24.80;99.90;;;;;;5049602;28;20025;-83
2021/06/12 08:11:55;;;;;;;4.57;3.00;;;25.00;99.90;;;;;;5053850;28;20039;-84
2021/06/12 08:14:21;;;;;;;5.25;3.28;;;25.20;99.90;;;;;;5046078;28;20059;-83
2021/06/12 08:16:46;;;;;;;5.85;2.67;;;25.50;99.90;;;;;;5028966;28;20028;-83
2021/06/12 08:19:12;;;;;;;5.93;3.13;;;25.70;99.90;;;;;;5052915;28;20385;-83
2021/06/12 08:21:38;;;;;;;4.60;2.75;;;25.50;99.90;;;;;;5054165;28;20045;-84
2021/06/12 08:24:04;;;;;;;3.38;2.10;;;25.60;99.90;;;;;;5037395;28;20028;-83
2021/06/12 08:26:30;;;;;;;3.08;1.70;;;25.50;99.90;;;;;;5041305;28;20067;-84
2021/06/12 08:28:56;;;;;;;3.53;1.50;;;25.60;99.90;;;;;;5064331;28;20029;-84
2021/06/12 08:31:22;;;;;;;3.17;1.70;;;25.90;98.10;;;;;;5057809;28;20024;-84
2021/06/12 08:33:47;;;;;;;2.78;1.50;;;25.90;97.10;;;;;;5063026;28;20503;-83
2021/06/12 08:36:14;;;;;;;3.00;1.80;;;25.90;96.20;;;;;;5048057;28;20028;-83
2021/06/12 08:38:39;;;;;;;2.53;1.40;;;25.90;96.90;;;;;;5035729;28;20029;-83
2021/06/12 08:41:05;;;;;;;2.60;1.25;;;25.90;96.60;;;;;;5054353;28;20033;-82
2021/06/12 08:43:31;;;;;;;2.58;1.52;;;25.90;97.30;;;;;;5036408;28;20120;-81
2021/06/12 08:45:59;;;;;;;2.53;1.50;;;25.80;95.80;;;;;;5053301;28;20507;-80
2021/06/12 08:48:26;;;;;;;5.35;1.92;;;25.80;96.30;;;;;;5053340;28;20112;-83
2021/06/12 08:50:53;;;;;;;4.40;2.45;;;26.00;95.60;;;;;;5056552;28;20048;-82
2021/06/12 08:53:19;;;;;;;5.55;2.50;;;26.00;97.00;;;;;;5042793;28;20017;-82
2021/06/12 08:55:46;;;;;;;6.32;2.17;;;26.10;96.50;;;;;;5042816;28;20025;-83
2021/06/12 08:58:12;;;;;;;4.60;2.97;;;26.20;97.30;;;;;;5029678;28;20025;-83
2021/06/12 09:00:38;;;;;;;8.68;3.45;;;26.10;97.20;;;;;;5030147;28;20048;-82
2021/06/12 09:03:25;;;;;;;5.75;3.33;;;26.00;97.70;;;;;;5031122;28;20489;-83
2021/06/12 09:05:54;;;;;;;5.47;2.97;;;25.90;97.60;;;;;;5046766;28;20489;-82
2021/06/12 09:08:31;;;;;;;3.53;2.10;;;25.90;98.90;;;;;;5035563;28;20028;-80
2021/06/12 09:11:18;;;;;;;3.90;2.08;;;25.80;98.10;;;;;;5031235;28;20087;-80
2021/06/12 09:13:48;;;;;;;3.53;2.35;;;26.20;97.90;;;;;;5050275;28;20469;-80
2021/06/12 09:16:30;;;;;;;4.65;2.30;;;26.30;97.40;;;;;;5053703;28;20107;-78
2021/06/12 09:19:21;;;;;;;4.15;2.67;;;26.50;97.80;;;;;;5053992;28;20558;-79
2021/06/12 09:21:55;;;;;;;3.83;2.80;;;26.60;97.40;;;;;;5019609;28;20048;-78
2021/06/12 09:24:38;;;;;;;4.38;2.53;;;26.90;97.80;;;;;;5044561;28;20021;-80
2021/06/12 09:27:17;;;;;;;3.28;2.13;;;26.80;96.70;;;;;;5043831;28;20409;-80
2021/06/12 09:29:44;;;;;;;7.05;1.92;;;26.70;97.10;;;;;;5040385;28;20026;-78
2021/06/12 09:32:25;;;;;;;5.07;1.63;;;26.40;97.70;;;;;;5031549;28;20029;-80
2021/06/12 09:34:52;;;;;;;;;;;26.30;97.10;;;;;;5039164;28;20028;-79
2021/06/12 09:37:20;;;;;;;3.00;1.63;;;26.10;97.30;;;;;;5057383;28;19916;-79
2021/06/12 09:40:06;;;;;;;3.00;1.13;;;26.10;95.90;;;;;;5051901;28;20025;-80
2021/06/12 09:42:36;;;;;;;2.58;1.20;;;26.40;95.40;;;;;;5057865;28;20025;-80
2021/06/12 09:45:07;;;;;;;3.03;1.25;;;26.70;94.50;;;;;;5060365;28;20036;-80
2021/06/12 09:47:33;;;;;;;3.90;1.10;;;26.90;94.00;;;;;;5043648;28;20017;-78
2021/06/12 09:50:00;;;;;;;2.10;0.90;;;26.90;94.00;;;;;;5057034;28;20059;-80
2021/06/12 09:52:25;;;;;;;3.28;1.00;;;27.00;93.30;;;;;;5068154;28;20020;-80
2021/06/12 09:54:52;;;;;;;2.40;0.95;;;27.10;93.00;;;;;;5074326;28;20040;-79
2021/06/12 09:57:23;;;;;;;3.30;1.20;;;27.20;92.80;;;;;;5039590;28;20032;-79
2021/06/12 09:59:55;;;;;;;2.10;1.05;;;27.10;92.60;;;;;;5041368;28;20611;-79
2021/06/12 10:02:45;;;;;;;3.10;1.35;;;27.10;92.40;;;;;;5041802;28;20029;-81
2021/06/12 10:05:13;;;;;;;2.53;1.00;;;27.40;92.00;;;;;;5058300;28;20017;-81
2021/06/12 10:07:40;;;;;;;4.63;0.95;;;27.70;92.00;;;;;;5035262;28;20022;-80
2021/06/12 10:10:13;;;;;;;2.30;1.10;;;27.90;91.70;;;;;;5032800;28;20162;-79
2021/06/12 10:12:40;;;;;;;1.70;0.82;;;27.90;91.00;;;;;;5042043;28;20021;-79
2021/06/12 10:15:08;;;;;;;1.52;0.82;;;28.10;90.60;;;;;;5041765;28;20090;-80
2021/06/12 10:17:45;;;;;;;1.65;0.90;;;28.20;88.90;;;;;;5041486;28;20029;-80
2021/06/12 10:20:13;;;;;;;5.68;1.30;;;28.40;88.90;;;;;;5043343;28;20017;-81
2021/06/12 10:22:43;;;;;;;2.80;1.00;;;28.40;88.50;;;;;;5042984;28;20021;-80
2021/06/12 10:25:10;;;;;;;2.83;0.98;;;28.70;87.20;;;;;;5044244;28;20060;-81
2021/06/12 10:27:38;;;;;;;2.08;1.10;;;28.90;84.40;;;;;;5039946;28;20021;-79
2021/06/12 10:30:04;;;;;;;1.88;0.90;;;28.70;86.80;;;;;;5045319;28;20291;-81
2021/06/12 10:32:31;;;;;;;1.75;0.90;;;28.70;84.90;;;;;;5048863;28;20496;-80
2021/06/12 10:35:02;;;;;;;1.25;0.80;;;28.80;84.60;;;;;;5046436;28;20093;-81
2021/06/12 10:37:27;;;;;;;;;;;28.80;84.00;;;;;;5048636;28;20104;-81
2021/06/12 10:40:03;;;;;;;2.00;1.20;;;28.80;82.50;;;;;;5051035;28;19940;-81
2021/06/12 10:42:29;;;;;;;1.73;0.90;;;28.50;83.40;;;;;;5014168;28;20041;-82
2021/06/12 10:44:56;;;;;;;1.92;0.93;;;28.60;84.50;;;;;;5060925;28;20020;-81
2021/06/12 10:47:43;;;;;;;2.83;1.00;;;28.70;82.10;;;;;;5061051;28;20039;-81
2021/06/12 10:50:24;;;;;;;1.83;0.90;;;28.80;81.20;;;;;;5070303;28;20040;-82
2021/06/12 10:52:51;;;;;;;1.60;0.98;;;28.80;82.70;;;;;;5042243;28;20029;-82
2021/06/12 10:55:39;;;;;;;1.77;1.08;;;29.00;81.40;;;;;;5037662;28;20049;-82
2021/06/12 10:58:34;;;;;;;4.22;1.00;;;29.20;82.10;;;;;;5044702;28;20025;-82
2021/06/12 11:01:08;;;;;;;1.75;1.00;;;29.30;78.30;;;;;;5022063;28;20029;-83
2021/06/12 11:04:16;;;;;;;2.40;1.10;;;29.20;76.70;;;;;;5018387;28;20083;-83
2021/06/12 11:06:58;;;;;;;1.40;0.90;;;29.40;76.70;;;;;;5035346;28;20108;-83
2021/06/12 11:09:32;;;;;;;2.35;0.98;;;29.70;75.00;;;;;;5018642;28;20025;-82
2021/06/12 11:12:22;;;;;;;1.75;0.80;;;29.60;74.60;;;;;;5035860;28;20025;-84
2021/06/12 11:15:04;;;;;;;1.85;0.80;;;28.90;74.90;;;;;;5035578;28;20053;-85
2021/06/12 11:17:30;;;;;;;1.92;0.85;;;29.00;75.90;;;;;;5037014;28;20025;-85
2021/06/12 11:19:56;;;;;;;5.05;0.95;;;29.00;75.30;;;;;;5035507;28;20032;-84
2021/06/12 11:22:43;;;;;;;1.98;0.88;;;29.00;75.10;;;;;;5051275;28;20036;-84
2021/06/12 11:25:08;;;;;;;1.50;0.95;;;29.00;74.60;;;;;;5052261;28;20049;-83
2021/06/12 11:27:41;;;;;;;2.08;1.00;;;29.00;75.50;;;;;;5053675;28;20021;-83
2021/06/12 11:30:27;;;;;;;1.80;0.82;;;29.30;75.90;;;;;;5034026;28;20071;-83
2021/06/12 11:32:55;;;;;;;2.15;0.68;;;29.60;72.10;;;;;;5056374;28;20473;-84
2021/06/12 11:35:39;;;;;;;1.75;0.90;;;29.90;72.50;;;;;;5033179;28;20033;-83
2021/06/12 11:38:30;;;;;;;2.83;1.08;;;30.30;72.00;;;;;;5053566;28;20032;-83
2021/06/12 11:40:59;;;;;;;1.85;0.93;;;30.80;69.90;;;;;;5048518;28;20036;-82
2021/06/12 11:43:37;;;;;;;2.63;0.80;;;30.90;70.90;;;;;;5069240;28;20025;-82
2021/06/12 11:46:11;;;;;;;2.00;0.85;;;31.10;69.40;;;;;;5044202;28;20071;-82
2021/06/12 11:48:43;;;;;;;2.33;1.10;;;30.70;68.50;;;;;;5028672;28;20029;-82
2021/06/12 11:51:17;;;;;;;1.85;0.85;;;30.60;67.50;;;;;;5055483;28;20064;-82
2021/06/12 11:54:08;;;;;;;1.90;0.90;;;30.70;67.10;;;;;;5062689;28;20032;-82
2021/06/12 11:56:49;;;;;;;1.88;0.90;;;30.50;65.90;;;;;;5043376;28;20024;-82
2021/06/12 11:59:20;;;;;;;1.83;0.70;;;30.60;66.20;;;;;;5059592;28;20144;-82
2021/06/12 12:01:47;;;;;;;;;;;30.80;64.30;;;;;;5051034;28;20048;-82
2021/06/12 12:04:25;;;;;;;1.27;0.70;;;30.90;63.20;;;;;;5036179;28;19909;-82
2021/06/12 12:06:55;;;;;;;5.32;1.05;;;31.50;63.40;;;;;;5029351;28;20074;-80
2021/06/12 12:09:34;;;;;;;1.90;0.82;;;31.40;62.90;;;;;;5036570;28;20116;-80
2021/06/12 12:12:02;;;;;;;1.60;0.90;;;31.60;63.80;;;;;;5057406;28;20072;-84
2021/06/12 12:14:34;;;;;;;2.40;0.93;;;31.70;63.90;;;;;;5060778;28;20128;-83
2021/06/12 12:17:10;;;;;;;1.55;0.70;;;31.70;61.50;;;;;;5051801;28;20560;-86
2021/06/12 12:19:41;;;;;;;1.92;0.90;;;31.90;61.00;;;;;;5054062;28;20033;-84
2021/06/12 12:22:07;;;;;;;1.63;0.90;;;31.90;60.10;;;;;;5043062;28;20048;-84
2021/06/12 12:24:33;;;;;;;4.30;1.02;;;32.00;61.20;;;;;;5056737;28;20485;-86
2021/06/12 12:27:08;;;;;;;2.13;0.98;;;31.90;60.70;;;;;;5058319;28;20045;-85
2021/06/12 12:29:39;;;;;;;1.75;0.88;;;31.80;61.60;;;;;;5039842;28;20125;-87
2021/06/12 12:32:05;;;;;;;5.13;0.90;;;31.60;62.00;;;;;;5038258;28;20029;-86
2021/06/12 12:34:37;;;;;;;2.22;0.90;;;31.40;61.30;;;;;;5042585;28;20017;-86
2021/06/12 12:37:17;;;;;;;1.30;0.70;;;31.30;62.30;;;;;;5031882;28;20493;-86
2021/06/12 12:39:44;;;;;;;2.55;0.82;;;31.20;62.60;;;;;;5053226;28;20025;-84
2021/06/12 12:42:22;;;;;;;1.90;0.68;;;31.30;61.90;;;;;;5034426;28;20034;-87
2021/06/12 12:44:51;;;;;;;2.13;0.82;;;31.10;62.40;;;;;;5029768;28;20504;-89
2021/06/12 12:47:26;;;;;;;2.80;0.70;;;31.20;62.00;;;;;;5033109;28;20123;-86
2021/06/12 12:49:52;;;;;;;1.63;0.57;;;31.10;61.40;;;;;;5051779;28;20056;-87
2021/06/12 12:52:23;;;;;;;1.38;0.70;;;31.10;61.30;;;;;;5058446;28;20108;-86
2021/06/12 12:55:04;;;;;;;2.30;0.70;;;31.20;62.00;;;;;;5033415;28;20025;-85
2021/06/12 12:57:48;;;;;;;2.20;0.70;;;31.10;62.10;;;;;;5055306;28;20024;-80